createdAt,value
2023-10-04T00:02:13.257Z,76.86
2023-10-04T00:04:44.852Z,76.97
2023-10-04T00:07:12.355Z,77.45
2023-10-04T00:09:39.572Z,76.97
2023-10-04T00:12:06.693Z,77.11
2023-10-04T00:14:33.560Z,77.55
2023-10-04T00:17:01.235Z,77.57
2023-10-04T00:19:29.321Z,77.54
2023-10-04T00:21:56.391Z,77.23
2023-10-04T00:24:23.443Z,77.18
2023-10-04T00:26:51.050Z,77.14
2023-10-04T00:29:20.748Z,77.40
2023-10-04T00:31:48.663Z,77.52
2023-10-04T00:34:15.827Z,77.93
2023-10-04T00:36:45.169Z,77.93
2023-10-04T00:39:14.921Z,77.53
2023-10-04T00:41:43.934Z,77.94
2023-10-04T00:44:10.822Z,78.26
2023-10-04T00:46:42.031Z,78.89
2023-10-04T00:49:09.703Z,78.85
2023-10-04T00:51:38.243Z,79.33
2023-10-04T00:54:10.590Z,79.10
2023-10-04T00:56:39.300Z,79.99
2023-10-04T00:59:06.484Z,79.74
2023-10-04T01:01:33.780Z,79.35
2023-10-04T01:04:06.250Z,79.12
2023-10-04T01:06:33.776Z,78.85
2023-10-04T01:09:01.986Z,78.55
2023-10-04T01:11:38.448Z,79.07
2023-10-04T01:14:18.751Z,79.03
2023-10-04T01:16:46.119Z,78.97
2023-10-04T01:19:17.133Z,79.30
2023-10-04T01:21:46.337Z,79.20
2023-10-04T01:24:13.670Z,78.92
2023-10-04T01:26:42.530Z,79.28
2023-10-04T01:29:13.352Z,79.70
2023-10-04T01:31:40.433Z,79.44
2023-10-04T01:34:08.465Z,79.93
2023-10-04T01:36:40.046Z,79.73
2023-10-04T01:39:09.199Z,79.44
2023-10-04T01:41:40.201Z,80.18
2023-10-04T01:44:11.621Z,80.03
2023-10-04T01:46:39.613Z,79.50
2023-10-04T01:49:10.130Z,79.67
2023-10-04T01:51:37.484Z,79.49
2023-10-04T01:54:06.131Z,79.94
2023-10-04T01:56:33.240Z,80.35
2023-10-04T01:59:00.874Z,80.20
2023-10-04T02:01:27.932Z,80.07
2023-10-04T02:03:55.095Z,80.00
2023-10-04T02:06:23.207Z,80.11
2023-10-04T02:08:51.096Z,79.75
2023-10-04T02:11:22.276Z,80.25
2023-10-04T02:13:49.339Z,80.46
2023-10-04T02:16:21.346Z,80.32
2023-10-04T02:18:49.743Z,80.75
2023-10-04T02:21:19.094Z,80.71
2023-10-04T02:23:46.696Z,80.97
2023-10-04T02:26:13.962Z,80.10
2023-10-04T02:28:41.275Z,80.51
2023-10-04T02:31:08.136Z,80.85
2023-10-04T02:33:35.917Z,81.21
2023-10-04T02:36:05.622Z,81.25
2023-10-04T02:38:35.497Z,80.94
2023-10-04T02:41:06.529Z,80.92
2023-10-04T02:43:38.139Z,80.89
2023-10-04T02:46:05.451Z,81.09
2023-10-04T02:48:34.028Z,81.09
2023-10-04T02:51:02.487Z,81.22
2023-10-04T02:53:30.254Z,81.12
2023-10-04T02:55:58.865Z,81.48
2023-10-04T02:58:33.090Z,81.21
2023-10-04T03:01:00.659Z,81.00
2023-10-04T03:03:27.648Z,81.21
2023-10-04T03:05:58.913Z,81.33
2023-10-04T03:08:25.902Z,81.33
2023-10-04T03:10:56.511Z,80.86
2023-10-04T03:13:27.108Z,81.81
2023-10-04T03:15:57.510Z,81.66
2023-10-04T03:18:26.798Z,82.44
2023-10-04T03:21:02.153Z,82.07
2023-10-04T03:23:36.846Z,81.97
2023-10-04T03:26:13.436Z,82.15
2023-10-04T03:28:41.630Z,82.71
2023-10-04T03:31:15.125Z,82.55
2023-10-04T03:33:47.545Z,82.99
2023-10-04T03:36:19.258Z,82.22
2023-10-04T03:38:50.750Z,82.37
2023-10-04T03:41:20.368Z,82.98
2023-10-04T03:43:48.384Z,82.48
2023-10-04T03:46:20.133Z,82.27
2023-10-04T03:48:52.975Z,82.71
2023-10-04T03:51:22.419Z,82.47
2023-10-04T03:53:52.648Z,83.12
2023-10-04T03:56:23.134Z,83.12
2023-10-04T03:58:51.919Z,83.01
2023-10-04T04:01:20.641Z,82.87
2023-10-04T04:03:50.535Z,82.67
2023-10-04T04:06:18.437Z,82.78
2023-10-04T04:08:48.211Z,82.74
2023-10-04T04:11:15.657Z,82.60
2023-10-04T04:13:43.202Z,82.79
2023-10-04T04:16:13.207Z,83.03
2023-10-04T04:18:41.677Z,82.61
2023-10-04T04:21:09.144Z,82.70
2023-10-04T04:23:37.782Z,83.36
2023-10-04T04:26:09.105Z,83.54
2023-10-04T04:28:37.929Z,83.42
2023-10-04T04:31:15.459Z,83.04
2023-10-04T04:33:44.540Z,83.58
2023-10-04T04:36:26.999Z,83.95
2023-10-04T04:38:56.515Z,83.96
2023-10-04T04:41:26.831Z,84.58
2023-10-04T04:43:56.214Z,84.34
2023-10-04T04:46:24.473Z,83.94
2023-10-04T04:48:56.097Z,84.29
2023-10-04T04:51:25.023Z,84.41
2023-10-04T04:53:54.751Z,84.73
2023-10-04T04:56:28.057Z,84.94
2023-10-04T04:58:58.881Z,84.72
2023-10-04T05:01:35.339Z,85.16
2023-10-04T05:04:08.097Z,85.18
2023-10-04T05:06:35.548Z,84.53
2023-10-04T05:09:02.954Z,84.91
2023-10-04T05:11:30.266Z,85.58
2023-10-04T05:13:57.910Z,85.37
2023-10-04T05:16:26.471Z,85.19
2023-10-04T05:18:55.304Z,84.83
2023-10-04T05:21:22.479Z,85.22
2023-10-04T05:23:49.489Z,85.63
2023-10-04T05:26:16.403Z,85.84
2023-10-04T05:28:43.423Z,85.91
2023-10-04T05:31:10.552Z,85.94
2023-10-04T05:33:37.860Z,85.99
2023-10-04T05:36:07.052Z,85.35
2023-10-04T05:38:35.794Z,86.21
2023-10-04T05:41:06.641Z,86.66
2023-10-04T05:43:35.715Z,86.85
2023-10-04T05:46:04.473Z,87.18
2023-10-04T05:48:31.441Z,86.97
2023-10-04T05:50:59.704Z,86.12
2023-10-04T05:53:28.810Z,86.12
2023-10-04T05:55:55.950Z,86.25
2023-10-04T05:58:23.160Z,86.12
2023-10-04T06:00:54.583Z,86.25
2023-10-04T06:03:23.479Z,86.81
2023-10-04T06:05:53.055Z,86.98
2023-10-04T06:08:21.196Z,87.17
2023-10-04T06:10:54.675Z,87.34
2023-10-04T06:13:27.084Z,87.37
2023-10-04T06:15:56.327Z,86.87
2023-10-04T06:18:30.085Z,87.20
2023-10-04T06:21:01.445Z,87.89
2023-10-04T06:23:32.335Z,87.67
2023-10-04T06:25:59.815Z,86.86
2023-10-04T06:28:26.596Z,87.24
2023-10-04T06:30:54.331Z,87.16
2023-10-04T06:33:21.459Z,86.65
2023-10-04T06:35:48.759Z,87.10
2023-10-04T06:38:16.004Z,87.42
2023-10-04T06:40:44.297Z,87.40
2023-10-04T06:43:12.813Z,87.27
2023-10-04T06:45:43.528Z,87.23
2023-10-04T06:48:11.277Z,87.20
2023-10-04T06:50:41.984Z,87.83
2023-10-04T06:53:13.713Z,87.89
2023-10-04T06:55:42.851Z,87.96
2023-10-04T06:58:12.750Z,87.98
2023-10-04T07:00:42.514Z,87.21
2023-10-04T07:03:17.136Z,87.99
2023-10-04T07:05:45.127Z,87.74
2023-10-04T07:08:17.395Z,87.03
2023-10-04T07:10:46.328Z,87.16
2023-10-04T07:13:13.567Z,87.45
2023-10-04T07:15:44.511Z,87.14
2023-10-04T07:18:14.050Z,86.39
2023-10-04T07:20:42.596Z,86.36
2023-10-04T07:23:11.641Z,86.26
2023-10-04T07:25:48.224Z,86.20
2023-10-04T07:28:15.028Z,86.05
2023-10-04T07:30:43.031Z,85.21
2023-10-04T07:33:11.789Z,84.11
2023-10-04T07:35:39.555Z,83.64
2023-10-04T07:38:07.322Z,83.56
2023-10-04T07:40:36.706Z,83.11
2023-10-04T07:43:05.057Z,82.99
2023-10-04T07:45:33.609Z,82.71
2023-10-04T07:48:01.477Z,82.00
2023-10-04T07:50:29.876Z,82.33
2023-10-04T07:53:00.917Z,82.63
2023-10-04T07:55:29.187Z,82.32
2023-10-04T07:57:59.989Z,82.13
2023-10-04T08:00:28.380Z,81.87
2023-10-04T08:02:55.258Z,82.42
2023-10-04T08:05:26.549Z,82.25
2023-10-04T08:08:03.852Z,82.70
2023-10-04T08:10:37.776Z,82.86
2023-10-04T08:13:07.040Z,83.29
2023-10-04T08:15:39.369Z,83.33
2023-10-04T08:18:07.228Z,83.43
2023-10-04T08:20:37.529Z,83.72
2023-10-04T08:23:04.857Z,84.16
2023-10-04T08:25:34.028Z,83.47
2023-10-04T08:28:02.100Z,83.46
2023-10-04T08:30:29.567Z,83.98
2023-10-04T08:32:56.438Z,83.96
2023-10-04T08:35:25.154Z,84.04
2023-10-04T08:37:56.261Z,84.50
2023-10-04T08:40:25.512Z,84.48
2023-10-04T08:42:52.903Z,84.04
2023-10-04T08:45:21.574Z,83.55
2023-10-04T08:47:56.392Z,83.51
2023-10-04T08:50:38.099Z,83.96
2023-10-04T08:53:41.711Z,83.58
2023-10-04T08:56:16.850Z,84.10
2023-10-04T08:58:45.375Z,84.15
2023-10-04T09:01:17.092Z,83.79
2023-10-04T09:03:45.690Z,83.89
2023-10-04T09:06:18.180Z,84.12
2023-10-04T09:08:45.408Z,83.87
2023-10-04T09:11:13.592Z,84.20
2023-10-04T09:13:51.046Z,84.14
2023-10-04T09:16:31.361Z,84.26
2023-10-04T09:19:19.786Z,84.98
2023-10-04T09:21:52.113Z,84.90
2023-10-04T09:24:19.039Z,84.73
2023-10-04T09:26:56.090Z,85.21
2023-10-04T09:29:36.936Z,85.00
2023-10-04T09:32:05.487Z,85.80
2023-10-04T09:34:34.478Z,85.65
2023-10-04T09:37:01.899Z,85.54
2023-10-04T09:39:33.145Z,85.85
2023-10-04T09:42:05.211Z,85.76
2023-10-04T09:44:37.023Z,85.94
2023-10-04T09:47:04.460Z,86.11
2023-10-04T09:49:35.151Z,86.23
2023-10-04T09:52:17.724Z,86.11
2023-10-04T09:54:44.811Z,86.23
2023-10-04T09:57:13.528Z,86.55
2023-10-04T09:59:41.446Z,86.75
2023-10-04T10:02:11.401Z,86.30
2023-10-04T10:04:45.063Z,86.48
2023-10-04T10:07:17.563Z,86.12
2023-10-04T10:10:15.681Z,86.41
2023-10-04T10:12:47.723Z,86.28
2023-10-04T10:15:14.912Z,86.42
2023-10-04T10:17:44.664Z,86.07
2023-10-04T10:20:13.678Z,86.11
2023-10-04T10:23:01.740Z,85.54
2023-10-04T10:25:30.940Z,85.16
2023-10-04T10:27:59.138Z,85.36
2023-10-04T10:30:26.549Z,85.42
2023-10-04T10:32:57.967Z,85.31
2023-10-04T10:35:49.973Z,84.99
2023-10-04T10:38:41.807Z,84.80
2023-10-04T10:41:12.310Z,85.66
2023-10-04T10:44:20.346Z,85.63
2023-10-04T10:47:08.997Z,84.78
2023-10-04T10:49:42.297Z,85.39
2023-10-04T10:52:29.639Z,85.10
2023-10-04T10:55:02.965Z,85.34
2023-10-04T10:57:30.873Z,85.86
2023-10-04T11:00:13.941Z,85.80
2023-10-04T11:02:41.680Z,84.98
2023-10-04T11:05:10.126Z,85.55
2023-10-04T11:07:39.032Z,85.27
2023-10-04T11:10:07.825Z,85.97
2023-10-04T11:12:38.884Z,85.38
2023-10-04T11:15:10.615Z,85.59
2023-10-04T11:17:39.172Z,84.74
2023-10-04T11:20:11.727Z,85.19
2023-10-04T11:22:40.986Z,84.79
2023-10-04T11:25:10.002Z,84.88
2023-10-04T11:27:38.910Z,85.43
2023-10-04T11:30:07.639Z,84.95
2023-10-04T11:32:35.325Z,84.29
2023-10-04T11:35:09.441Z,84.23
2023-10-04T11:37:48.751Z,84.58
2023-10-04T11:40:21.753Z,83.39
2023-10-04T11:43:00.961Z,83.09
2023-10-04T11:45:29.564Z,81.94
2023-10-04T11:48:07.435Z,81.53
2023-10-04T11:50:45.400Z,80.97
2023-10-04T11:53:13.754Z,80.80
2023-10-04T11:55:41.280Z,81.27
2023-10-04T11:58:11.485Z,80.57
2023-10-04T12:00:38.873Z,80.91
2023-10-04T12:03:07.348Z,80.98
2023-10-04T12:05:34.632Z,80.73
2023-10-04T12:08:02.286Z,80.47
2023-10-04T12:10:29.455Z,79.98
2023-10-04T12:12:59.374Z,79.63
2023-10-04T12:15:26.794Z,79.30
2023-10-04T12:17:53.943Z,78.38
2023-10-04T12:20:25.765Z,78.84
2023-10-04T12:22:53.132Z,78.27
2023-10-04T12:25:23.034Z,78.37
2023-10-04T12:27:50.215Z,78.61
2023-10-04T12:30:19.510Z,76.88
2023-10-04T12:32:52.109Z,76.93
2023-10-04T12:35:22.520Z,76.75
2023-10-04T12:37:50.146Z,76.70
2023-10-04T12:40:24.900Z,77.18
2023-10-04T12:42:52.948Z,76.42
2023-10-04T12:45:21.088Z,76.46
2023-10-04T12:47:49.132Z,75.33
2023-10-04T12:50:16.306Z,74.63
2023-10-04T12:52:45.203Z,74.93
2023-10-04T12:55:13.266Z,74.56
2023-10-04T12:57:41.141Z,74.74
2023-10-04T13:00:16.761Z,74.64
2023-10-04T13:02:45.558Z,74.76
2023-10-04T13:05:19.815Z,74.43
2023-10-04T13:07:48.557Z,73.89
2023-10-04T13:10:17.107Z,73.84
2023-10-04T13:12:44.340Z,73.69
2023-10-04T13:15:13.480Z,73.28
2023-10-04T13:17:41.028Z,73.57
2023-10-04T13:20:12.123Z,73.40
2023-10-04T13:22:39.787Z,72.57
2023-10-04T13:25:08.147Z,72.43
2023-10-04T13:27:36.253Z,72.10
2023-10-04T13:30:05.490Z,72.60
2023-10-04T13:32:33.120Z,71.67
2023-10-04T13:35:01.408Z,72.21
2023-10-04T13:37:29.039Z,71.46
2023-10-04T13:39:57.062Z,70.86
2023-10-04T13:42:29.065Z,70.67
2023-10-04T13:44:58.793Z,70.16
2023-10-04T13:47:26.942Z,70.80
2023-10-04T13:49:54.062Z,70.88
2023-10-04T13:52:22.028Z,70.46
2023-10-04T13:54:55.733Z,70.64
2023-10-04T13:57:24.048Z,70.40
2023-10-04T13:59:50.985Z,70.62
2023-10-04T14:02:20.491Z,69.98
2023-10-04T14:04:47.746Z,70.46
2023-10-04T14:07:15.266Z,70.01
2023-10-04T14:09:45.468Z,70.41
2023-10-04T14:12:12.703Z,69.81
2023-10-04T14:14:39.734Z,69.76
2023-10-04T14:17:07.048Z,70.01
2023-10-04T14:19:33.942Z,69.70
2023-10-04T14:22:02.540Z,70.11
2023-10-04T14:24:29.633Z,70.20
2023-10-04T14:27:02.187Z,71.23
2023-10-04T14:29:31.340Z,70.47
2023-10-04T14:31:59.135Z,71.04
2023-10-04T14:34:26.468Z,71.78
2023-10-04T14:36:54.620Z,71.09
2023-10-04T14:39:24.782Z,71.45
2023-10-04T14:41:52.035Z,71.84
2023-10-04T14:44:18.999Z,72.04
2023-10-04T14:46:45.950Z,71.68
2023-10-04T14:49:12.902Z,71.91
2023-10-04T14:51:39.739Z,71.67
2023-10-04T14:54:06.986Z,72.07
2023-10-04T14:56:34.054Z,72.61
2023-10-04T14:59:01.055Z,71.84
2023-10-04T15:01:27.922Z,71.80
2023-10-04T15:03:58.695Z,72.68
2023-10-04T15:06:30.585Z,72.42
2023-10-04T15:08:57.962Z,72.80
2023-10-04T15:11:30.579Z,72.23
2023-10-04T15:13:59.512Z,71.40
2023-10-04T15:16:26.923Z,71.86
2023-10-04T15:18:54.572Z,72.40
2023-10-04T15:21:21.773Z,72.26
2023-10-04T15:23:48.640Z,72.07
2023-10-04T15:26:18.652Z,72.13
2023-10-04T15:28:47.165Z,72.06
2023-10-04T15:31:16.241Z,72.15
2023-10-04T15:33:45.788Z,71.65
2023-10-04T15:36:14.252Z,72.25
2023-10-04T15:38:41.350Z,71.99
2023-10-04T15:41:09.198Z,72.61
2023-10-04T15:43:36.678Z,72.13
2023-10-04T15:46:04.271Z,72.00
2023-10-04T15:48:31.253Z,71.99
2023-10-04T15:50:58.112Z,72.32
2023-10-04T15:53:25.607Z,72.84
2023-10-04T15:55:52.584Z,72.58
2023-10-04T15:58:19.811Z,72.53
2023-10-04T16:00:46.952Z,72.88
2023-10-04T16:03:15.316Z,72.96
2023-10-04T16:05:42.584Z,73.19
2023-10-04T16:08:09.883Z,73.20
2023-10-04T16:10:37.091Z,73.63
2023-10-04T16:13:08.108Z,73.82
2023-10-04T16:15:36.325Z,73.95
2023-10-04T16:18:03.983Z,73.36
2023-10-04T16:20:31.009Z,73.32
2023-10-04T16:22:58.984Z,73.47
2023-10-04T16:25:27.395Z,73.55
2023-10-04T16:27:54.964Z,73.73
2023-10-04T16:30:22.272Z,74.37
2023-10-04T16:32:49.837Z,73.95
2023-10-04T16:35:21.110Z,74.09
2023-10-04T16:37:51.908Z,73.80
2023-10-04T16:40:21.101Z,74.18
2023-10-04T16:42:50.835Z,74.28
2023-10-04T16:45:19.197Z,74.71
2023-10-04T16:47:48.560Z,74.79
2023-10-04T16:50:21.500Z,74.44
2023-10-04T16:52:54.077Z,75.08
2023-10-04T16:55:21.219Z,75.00
2023-10-04T16:57:50.162Z,75.22
2023-10-04T17:00:18.987Z,75.68
2023-10-04T17:02:46.959Z,75.46
2023-10-04T17:05:16.039Z,76.00
2023-10-04T17:07:44.347Z,76.29
2023-10-04T17:10:13.531Z,76.45
2023-10-04T17:15:12.275Z,76.64
2023-10-04T17:17:39.243Z,76.56
2023-10-04T17:20:06.896Z,76.16
2023-10-04T17:22:33.803Z,76.38
2023-10-04T17:25:04.246Z,75.68
2023-10-04T17:27:32.610Z,75.55
2023-10-04T17:29:59.598Z,76.24
2023-10-04T17:32:26.597Z,76.36
2023-10-04T17:35:00.421Z,76.25
2023-10-04T17:37:27.497Z,76.13
2023-10-04T17:39:54.438Z,76.26
2023-10-04T17:42:22.304Z,75.93
2023-10-04T17:44:49.099Z,75.69
2023-10-04T17:47:15.899Z,75.55
2023-10-04T17:49:42.730Z,75.88
2023-10-04T17:52:09.600Z,75.82
2023-10-04T17:54:36.466Z,75.98
2023-10-04T17:57:03.401Z,75.66
2023-10-04T17:59:30.202Z,75.27
2023-10-04T18:01:57.304Z,75.43
2023-10-04T18:04:24.333Z,75.42
2023-10-04T18:06:51.419Z,75.53
2023-10-04T18:09:19.276Z,76.03
2023-10-04T18:11:46.225Z,75.85
2023-10-04T18:14:13.881Z,75.36
2023-10-04T18:16:42.508Z,75.38
2023-10-04T18:19:11.951Z,75.42
2023-10-04T18:21:39.277Z,75.16
2023-10-04T18:24:10.172Z,75.03
2023-10-04T18:26:37.897Z,75.51
2023-10-04T18:29:05.284Z,75.84
2023-10-04T18:31:32.900Z,75.62
2023-10-04T18:34:01.477Z,75.27
2023-10-04T18:36:28.499Z,75.62
2023-10-04T18:38:55.501Z,75.56
2023-10-04T18:41:23.800Z,75.54
2023-10-04T18:43:50.832Z,75.92
2023-10-04T18:46:18.015Z,76.04
2023-10-04T18:48:44.982Z,75.57
2023-10-04T18:51:12.251Z,75.80
2023-10-04T18:53:39.653Z,75.62
2023-10-04T18:56:06.550Z,75.54
2023-10-04T18:58:33.559Z,75.30
2023-10-04T19:01:04.821Z,75.34
2023-10-04T19:03:33.610Z,75.47
2023-10-04T19:06:00.772Z,75.59
2023-10-04T19:08:29.981Z,75.47
2023-10-04T19:10:59.132Z,75.34
2023-10-04T19:13:29.566Z,74.80
2023-10-04T19:15:56.638Z,74.83
2023-10-04T19:18:23.622Z,74.94
2023-10-04T19:20:53.068Z,75.49
2023-10-04T19:23:23.262Z,75.88
2023-10-04T19:25:54.062Z,75.04
2023-10-04T19:28:22.240Z,75.58
2023-10-04T19:30:50.966Z,75.52
2023-10-04T19:33:20.035Z,75.92
2023-10-04T19:35:50.671Z,75.88
2023-10-04T19:38:19.980Z,75.67
2023-10-04T19:40:48.868Z,75.92
2023-10-04T19:43:18.232Z,75.82
2023-10-04T19:45:45.452Z,75.71
2023-10-04T19:48:12.453Z,75.86
2023-10-04T19:50:39.415Z,75.75
2023-10-04T19:53:06.939Z,75.88
2023-10-04T19:55:34.225Z,75.71
2023-10-04T19:58:02.456Z,75.90
2023-10-04T20:00:32.870Z,75.56
2023-10-04T20:03:02.158Z,75.58
2023-10-04T20:05:32.907Z,76.17
2023-10-04T20:08:01.595Z,75.41
2023-10-04T20:10:37.687Z,74.91
2023-10-04T20:13:08.039Z,75.67
2023-10-04T20:15:39.502Z,75.62
2023-10-04T20:18:09.311Z,75.49
2023-10-04T20:20:39.016Z,76.19
2023-10-04T20:23:09.315Z,75.89
2023-10-04T20:25:46.856Z,76.02
2023-10-04T20:28:17.328Z,76.24
2023-10-04T20:30:46.225Z,76.29
2023-10-04T20:33:13.330Z,75.86
2023-10-04T20:35:44.676Z,76.08
2023-10-04T20:38:13.721Z,76.63
2023-10-04T20:40:41.267Z,75.92
2023-10-04T20:43:10.762Z,76.34
2023-10-04T20:45:40.244Z,76.33
2023-10-04T20:48:11.824Z,76.61
2023-10-04T20:50:40.331Z,76.48
2023-10-04T20:53:07.217Z,76.59
2023-10-04T20:55:34.153Z,76.72
2023-10-04T20:58:01.393Z,76.78
2023-10-04T21:00:28.577Z,77.04
2023-10-04T21:02:56.076Z,77.27
2023-10-04T21:05:22.935Z,76.94
2023-10-04T21:07:49.781Z,76.77
2023-10-04T21:10:17.199Z,76.58
2023-10-04T21:12:45.426Z,76.82
2023-10-04T21:15:17.274Z,76.99
2023-10-04T21:17:44.919Z,77.05
2023-10-04T21:20:12.551Z,77.34
2023-10-04T21:22:41.935Z,76.98
2023-10-04T21:25:10.542Z,77.34
2023-10-04T21:27:37.886Z,77.53
2023-10-04T21:30:08.566Z,76.89
2023-10-04T21:32:39.024Z,76.94
2023-10-04T21:35:20.050Z,76.89
2023-10-04T21:37:49.589Z,77.12
2023-10-04T21:40:20.252Z,76.82
2023-10-04T21:42:48.662Z,76.90
2023-10-04T21:45:22.126Z,76.64
2023-10-04T21:47:51.561Z,76.46
2023-10-04T21:50:20.907Z,76.68
2023-10-04T21:52:48.040Z,76.99
2023-10-04T21:55:15.092Z,76.99
2023-10-04T21:57:43.112Z,76.78
2023-10-04T22:00:30.158Z,76.78
2023-10-04T22:02:58.577Z,76.70
2023-10-04T22:05:26.337Z,76.97
2023-10-04T22:07:56.857Z,77.41
2023-10-04T22:10:24.927Z,77.17
2023-10-04T22:12:53.691Z,76.94
2023-10-04T22:15:21.047Z,76.60
2023-10-04T22:17:47.897Z,76.89
2023-10-04T22:20:15.846Z,77.41
2023-10-04T22:22:46.087Z,77.37
2023-10-04T22:25:13.743Z,77.11
2023-10-04T22:27:41.900Z,77.32
2023-10-04T22:30:20.303Z,77.24
2023-10-04T22:32:49.036Z,77.20
2023-10-04T22:35:16.170Z,77.18
2023-10-04T22:37:48.087Z,77.18
2023-10-04T22:40:19.692Z,77.73
2023-10-04T22:42:48.422Z,77.43
2023-10-04T22:45:17.089Z,78.04
2023-10-04T22:47:47.341Z,78.66
2023-10-04T22:50:17.328Z,79.15
2023-10-04T22:52:45.077Z,79.11
2023-10-04T22:55:15.726Z,79.45
2023-10-04T22:57:52.240Z,79.40
2023-10-04T23:00:22.099Z,79.83
2023-10-04T23:02:49.935Z,79.77
2023-10-04T23:05:21.002Z,79.62
2023-10-04T23:07:49.070Z,79.18
2023-10-04T23:10:17.287Z,79.31
2023-10-04T23:12:47.238Z,79.33
2023-10-04T23:15:14.942Z,79.37
2023-10-04T23:17:44.217Z,79.68
2023-10-04T23:20:30.281Z,79.24
2023-10-04T23:22:57.913Z,79.85
2023-10-04T23:25:29.460Z,79.78
2023-10-04T23:27:59.686Z,79.86
2023-10-04T23:30:27.411Z,78.83
2023-10-04T23:32:59.695Z,79.85
2023-10-04T23:35:41.877Z,80.04
2023-10-04T23:38:16.973Z,79.27
2023-10-04T23:40:51.270Z,79.71
2023-10-04T23:43:28.007Z,79.66
2023-10-04T23:45:58.472Z,80.19
2023-10-04T23:48:26.160Z,79.98
2023-10-04T23:50:57.411Z,80.17
2023-10-04T23:53:32.813Z,80.56
2023-10-04T23:56:01.284Z,79.83
2023-10-04T23:58:28.457Z,79.69
